Time;durP1;ratioP1;P1;durP2;ratioP2;P2;SDS_P1;SDS_P2;PMS_P1;PMS_P2;Temp;Humidity;BMP_temperature;BMP_pressure;BME280_temperature;BME280_humidity;BME280_pressure;Samples;Min_cycle;Max_cycle;Signal;HPM_P1;HPM_P2
2021/05/10 00:00:46;;;;;;;3.08;1.10;;;;;;;;;;5033677;28;20036;-58
2021/05/10 00:03:12;;;;;;;3.13;1.27;;;;;;;;;;5033943;28;20060;-58
2021/05/10 00:05:39;;;;;;;2.10;1.17;;;;;;;;;;5034143;28;20440;-58
2021/05/10 00:08:05;;;;;;;5.57;1.45;;;;;;;;;;5033527;28;20018;-58
2021/05/10 00:10:32;;;;;;;2.38;1.40;;;;;;;;;;5033603;28;20025;-58
2021/05/10 00:12:58;;;;;;;1.30;0.80;;;;;;;;;;5033880;28;20026;-58
2021/05/10 00:15:24;;;;;;;2.08;1.27;;;;;;;;;;5034090;28;20364;-58
2021/05/10 00:17:50;;;;;;;2.75;1.33;;;;;;;;;;5034509;28;20025;-58
2021/05/10 00:20:16;;;;;;;2.47;1.40;;;;;;;;;;5037515;28;20491;-58
2021/05/10 00:22:42;;;;;;;5.97;1.48;;;;;;;;;;5020754;28;20064;-58
2021/05/10 00:25:08;;;;;;;2.00;1.17;;;;;;;;;;5037600;28;20060;-58
2021/05/10 00:27:34;;;;;;;2.17;1.00;;;;;;;;;;5038297;28;20022;-58
2021/05/10 00:30:00;;;;;;;2.92;1.65;;;;;;;;;;5037928;28;20029;-58
2021/05/10 00:32:26;;;;;;;2.60;1.33;;;;;;;;;;5037902;28;20379;-58
2021/05/10 00:34:52;;;;;;;2.00;1.08;;;;;;;;;;5037903;28;20027;-58
2021/05/10 00:37:18;;;;;;;1.80;1.30;;;;;;;;;;5037837;28;20119;-58
2021/05/10 00:39:44;;;;;;;2.10;1.52;;;;;;;;;;5037314;28;20383;-58
2021/05/10 00:42:10;;;;;;;2.17;1.15;;;;;;;;;;5038103;28;20025;-58
2021/05/10 00:44:36;;;;;;;2.20;0.90;;;;;;;;;;5037154;28;20451;-58
2021/05/10 00:47:02;;;;;;;1.98;1.40;;;;;;;;;;5037076;28;20387;-58
2021/05/10 00:49:28;;;;;;;1.95;1.13;;;;;;;;;;5037144;28;20367;-57
2021/05/10 00:51:54;;;;;;;2.28;1.35;;;;;;;;;;5037024;28;20017;-58
2021/05/10 00:54:20;;;;;;;2.83;1.30;;;;;;;;;;5037236;28;20079;-58
2021/05/10 00:56:46;;;;;;;1.88;1.20;;;;;;;;;;5036913;28;20128;-58
2021/05/10 00:59:13;;;;;;;5.05;1.70;;;;;;;;;;5036975;28;20024;-58
2021/05/10 01:01:39;;;;;;;2.22;1.30;;;;;;;;;;5037177;28;20071;-58
2021/05/10 01:04:05;;;;;;;2.33;1.50;;;;;;;;;;5036865;28;20459;-58
2021/05/10 01:06:32;;;;;;;2.50;1.67;;;;;;;;;;5036529;28;20025;-58
2021/05/10 01:08:58;;;;;;;6.72;1.60;;;;;;;;;;5037121;28;20028;-58
2021/05/10 01:11:24;;;;;;;2.53;1.88;;;;;;;;;;5037040;28;20028;-58
2021/05/10 01:13:50;;;;;;;1.83;1.15;;;;;;;;;;5018848;28;20037;-58
2021/05/10 01:16:16;;;;;;;4.90;1.85;;;;;;;;;;5036911;28;20025;-59
2021/05/10 01:18:42;;;;;;;4.68;1.88;;;;;;;;;;5037122;28;20040;-58
2021/05/10 01:21:09;;;;;;;2.30;1.35;;;;;;;;;;5036702;28;20022;-58
2021/05/10 01:23:35;;;;;;;2.22;1.27;;;;;;;;;;5036445;28;20124;-58
2021/05/10 01:26:01;;;;;;;2.88;1.55;;;;;;;;;;5036487;28;20122;-58
2021/05/10 01:28:27;;;;;;;2.88;1.33;;;;;;;;;;5035850;28;20022;-58
2021/05/10 01:30:53;;;;;;;2.38;1.20;;;;;;;;;;5036600;28;20368;-58
2021/05/10 01:33:19;;;;;;;2.53;1.55;;;;;;;;;;5036299;28;20065;-58
2021/05/10 01:35:47;;;;;;;2.17;1.27;;;;;;;;;;5018510;28;20514;-58
2021/05/10 01:38:14;;;;;;;2.03;1.45;;;;;;;;;;5036516;28;20443;-58
2021/05/10 01:40:40;;;;;;;2.95;1.08;;;;;;;;;;5036668;28;20026;-58
2021/05/10 01:43:06;;;;;;;2.80;1.52;;;;;;;;;;5036107;28;20029;-58
2021/05/10 01:45:32;;;;;;;2.13;1.45;;;;;;;;;;5036308;28;20072;-58
2021/05/10 01:48:00;;;;;;;2.10;1.40;;;;;;;;;;5035941;28;20133;-58
2021/05/10 01:50:26;;;;;;;2.72;1.40;;;;;;;;;;5035660;28;20026;-58
2021/05/10 01:52:53;;;;;;;1.85;1.27;;;;;;;;;;5035878;28;20034;-57
2021/05/10 01:55:19;;;;;;;2.47;1.63;;;;;;;;;;5035929;28;20067;-57
2021/05/10 01:57:49;;;;;;;2.28;1.52;;;;;;;;;;5036383;28;20026;-57
2021/05/10 02:00:17;;;;;;;2.28;1.50;;;;;;;;;;5036332;28;20018;-57
2021/05/10 02:02:43;;;;;;;2.33;1.50;;;;;;;;;;5036012;28;20124;-57
2021/05/10 02:05:09;;;;;;;2.45;1.38;;;;;;;;;;5035645;28;20021;-57
2021/05/10 02:07:43;;;;;;;3.88;1.73;;;;;;;;;;5035709;28;20025;-57
2021/05/10 02:10:11;;;;;;;3.40;1.17;;;;;;;;;;5035865;28;20113;-57
2021/05/10 02:12:37;;;;;;;4.68;1.38;;;;;;;;;;5035295;28;20034;-57
2021/05/10 02:15:11;;;;;;;1.63;1.17;;;;;;;;;;5035979;28;20030;-57
2021/05/10 02:17:37;;;;;;;5.45;1.30;;;;;;;;;;5035440;28;20079;-57
2021/05/10 02:20:05;;;;;;;2.65;1.33;;;;;;;;;;5035795;28;20450;-57
2021/05/10 02:22:31;;;;;;;2.85;1.77;;;;;;;;;;5035669;28;20367;-57
2021/05/10 02:24:57;;;;;;;2.47;1.42;;;;;;;;;;5035349;28;20022;-57
2021/05/10 02:27:23;;;;;;;1.52;1.02;;;;;;;;;;5035877;28;20452;-57
2021/05/10 02:29:49;;;;;;;2.70;1.48;;;;;;;;;;5035575;28;20104;-57
2021/05/10 02:32:14;;;;;;;3.33;1.95;;;;;;;;;;5035470;28;20415;-57
2021/05/10 02:34:40;;;;;;;1.98;1.15;;;;;;;;;;5035460;28;20029;-57
2021/05/10 02:37:06;;;;;;;3.70;1.63;;;;;;;;;;5035118;28;20475;-57
2021/05/10 02:39:32;;;;;;;3.17;1.30;;;;;;;;;;5035533;28;20037;-57
2021/05/10 02:41:58;;;;;;;1.52;0.95;;;;;;;;;;5034194;28;20349;-57
2021/05/10 02:44:24;;;;;;;2.53;1.40;;;;;;;;;;5034900;28;20028;-57
2021/05/10 02:46:51;;;;;;;3.92;1.40;;;;;;;;;;5034934;28;20022;-57
2021/05/10 02:49:17;;;;;;;1.77;1.00;;;;;;;;;;5034877;28;20028;-57
2021/05/10 02:51:43;;;;;;;2.63;1.20;;;;;;;;;;5034802;28;20060;-58
2021/05/10 02:54:09;;;;;;;2.25;1.40;;;;;;;;;;5035035;28;20029;-58
2021/05/10 02:56:35;;;;;;;1.92;1.05;;;;;;;;;;5034693;28;20021;-57
2021/05/10 02:59:01;;;;;;;2.20;1.20;;;;;;;;;;5034689;28;20101;-58
2021/05/10 03:01:27;;;;;;;2.45;1.40;;;;;;;;;;5035176;28;20032;-57
2021/05/10 03:03:53;;;;;;;2.40;1.50;;;;;;;;;;5034618;28;20320;-57
2021/05/10 03:06:19;;;;;;;3.10;1.33;;;;;;;;;;5034205;28;20056;-57
2021/05/10 03:08:45;;;;;;;1.80;1.05;;;;;;;;;;5034800;28;20041;-57
2021/05/10 03:11:11;;;;;;;3.70;1.23;;;;;;;;;;5034775;28;20052;-57
2021/05/10 03:13:37;;;;;;;2.10;1.52;;;;;;;;;;5034272;28;20033;-57
2021/05/10 03:16:03;;;;;;;5.57;1.38;;;;;;;;;;5034340;28;20021;-57
2021/05/10 03:18:29;;;;;;;2.08;1.30;;;;;;;;;;5034227;28;20025;-57
2021/05/10 03:20:55;;;;;;;3.08;1.27;;;;;;;;;;5034469;28;20025;-57
2021/05/10 03:23:22;;;;;;;2.70;0.95;;;;;;;;;;5034202;28;20037;-57
2021/05/10 03:25:48;;;;;;;2.90;1.30;;;;;;;;;;5034733;28;20029;-57
2021/05/10 03:28:14;;;;;;;2.15;1.27;;;;;;;;;;5034139;28;20121;-57
2021/05/10 03:30:40;;;;;;;5.25;1.20;;;;;;;;;;5034130;28;20160;-56
2021/05/10 03:33:07;;;;;;;7.78;1.40;;;;;;;;;;5016329;28;20037;-57
2021/05/10 03:35:33;;;;;;;2.63;1.40;;;;;;;;;;5033861;28;20033;-56
2021/05/10 03:37:59;;;;;;;3.47;1.58;;;;;;;;;;5034274;28;20048;-57
2021/05/10 03:40:25;;;;;;;2.05;1.00;;;;;;;;;;5016202;28;20025;-57
2021/05/10 03:42:51;;;;;;;3.15;1.63;;;;;;;;;;5034455;28;20116;-57
2021/05/10 03:45:17;;;;;;;2.13;1.25;;;;;;;;;;5033750;28;20025;-57
2021/05/10 03:47:44;;;;;;;2.88;1.65;;;;;;;;;;5034607;28;20021;-56
2021/05/10 03:50:12;;;;;;;3.13;1.65;;;;;;;;;;5016937;28;20112;-57
2021/05/10 03:52:38;;;;;;;3.92;1.60;;;;;;;;;;5032913;28;20430;-57
2021/05/10 03:55:04;;;;;;;4.13;1.88;;;;;;;;;;5033760;28;20112;-57
2021/05/10 03:57:30;;;;;;;2.60;1.75;;;;;;;;;;5033922;28;20141;-56
2021/05/10 03:59:56;;;;;;;4.03;1.50;;;;;;;;;;5033661;28;20057;-57
2021/05/10 04:02:22;;;;;;;2.22;1.33;;;;;;;;;;5033878;28;20033;-57
2021/05/10 04:05:19;;;;;;;2.78;1.65;;;;;;;;;;5034235;28;20029;-57
2021/05/10 04:07:55;;;;;;;5.63;1.40;;;;;;;;;;5033483;28;20029;-57
2021/05/10 04:10:38;;;;;;;1.83;1.23;;;;;;;;;;5033761;28;20041;-57
2021/05/10 04:15:49;;;;;;;2.38;1.50;;;;;;;;;;5033960;28;20036;-57
2021/05/10 04:18:15;;;;;;;2.60;1.70;;;;;;;;;;5033598;28;20100;-57
2021/05/10 04:20:41;;;;;;;2.15;1.17;;;;;;;;;;5033662;28;20029;-57
2021/05/10 04:23:08;;;;;;;2.35;1.45;;;;;;;;;;5033567;28;20033;-57
2021/05/10 04:25:34;;;;;;;3.67;1.63;;;;;;;;;;5033450;28;20026;-57
2021/05/10 04:28:00;;;;;;;2.30;1.60;;;;;;;;;;5034013;28;20418;-57
2021/05/10 04:30:26;;;;;;;4.03;1.38;;;;;;;;;;5033780;28;20029;-57
2021/05/10 04:32:56;;;;;;;2.78;1.02;;;;;;;;;;5033949;28;20033;-57
2021/05/10 04:35:22;;;;;;;2.15;1.30;;;;;;;;;;5033770;28;20025;-57
2021/05/10 04:37:48;;;;;;;3.90;1.08;;;;;;;;;;5033930;28;20029;-57
2021/05/10 04:40:14;;;;;;;2.45;1.25;;;;;;;;;;5033293;28;20017;-57
2021/05/10 04:42:40;;;;;;;1.90;1.15;;;;;;;;;;5033127;28;20543;-56
2021/05/10 04:45:07;;;;;;;1.98;1.05;;;;;;;;;;5033324;28;20109;-57
2021/05/10 04:47:36;;;;;;;2.55;1.60;;;;;;;;;;5033233;28;20364;-57
2021/05/10 04:50:06;;;;;;;2.83;1.42;;;;;;;;;;5032856;28;20030;-57
2021/05/10 04:52:32;;;;;;;1.40;0.93;;;;;;;;;;5033421;28;20040;-57
2021/05/10 04:54:58;;;;;;;2.20;1.05;;;;;;;;;;5032879;28;20036;-57
2021/05/10 04:57:24;;;;;;;2.90;1.33;;;;;;;;;;5032841;28;20375;-57
2021/05/10 04:59:50;;;;;;;2.58;1.23;;;;;;;;;;5033112;28;20029;-57
2021/05/10 05:02:16;;;;;;;3.53;0.90;;;;;;;;;;5032326;28;20513;-57
2021/05/10 05:04:42;;;;;;;1.70;0.90;;;;;;;;;;5034575;28;20034;-58
2021/05/10 05:07:08;;;;;;;2.13;1.30;;;;;;;;;;5018425;28;20025;-57
2021/05/10 05:09:34;;;;;;;2.00;1.05;;;;;;;;;;5036599;28;20026;-58
2021/05/10 05:12:00;;;;;;;2.08;1.23;;;;;;;;;;5018367;28;20026;-57
2021/05/10 05:14:26;;;;;;;2.55;1.00;;;;;;;;;;5035973;28;20594;-57
2021/05/10 05:16:52;;;;;;;1.95;1.20;;;;;;;;;;5036122;28;20025;-57
2021/05/10 05:19:18;;;;;;;3.10;1.15;;;;;;;;;;5036298;28;20083;-57
2021/05/10 05:21:44;;;;;;;2.88;1.30;;;;;;;;;;5036567;28;20034;-57
2021/05/10 05:24:10;;;;;;;1.85;1.30;;;;;;;;;;5036072;28;20025;-57
2021/05/10 05:26:36;;;;;;;3.97;1.30;;;;;;;;;;5035976;28;20071;-57
2021/05/10 05:29:02;;;;;;;3.28;1.63;;;;;;;;;;5036055;28;20045;-57
2021/05/10 05:31:29;;;;;;;2.05;1.23;;;;;;;;;;5036718;28;20053;-57
2021/05/10 05:33:55;;;;;;;2.42;1.17;;;;;;;;;;5035648;28;20157;-57
2021/05/10 05:36:21;;;;;;;2.15;1.33;;;;;;;;;;5035569;28;20050;-57
2021/05/10 05:38:47;;;;;;;5.78;1.13;;;;;;;;;;5035680;28;20028;-57
2021/05/10 05:41:14;;;;;;;2.67;0.85;;;;;;;;;;5036019;28;20362;-57
2021/05/10 05:43:40;;;;;;;5.00;1.65;;;;;;;;;;5035509;28;20029;-58
2021/05/10 05:46:20;;;;;;;3.30;1.70;;;;;;;;;;5035688;28;20459;-58
2021/05/10 05:48:46;;;;;;;5.67;1.63;;;;;;;;;;5035745;28;20035;-58
2021/05/10 05:51:13;;;;;;;2.72;1.50;;;;;;;;;;5035660;28;20710;-58
2021/05/10 05:53:39;;;;;;;2.95;1.35;;;;;;;;;;5035621;28;20061;-59
2021/05/10 05:56:05;;;;;;;5.25;1.65;;;;;;;;;;5035812;28;20064;-59
2021/05/10 05:58:31;;;;;;;2.60;1.40;;;;;;;;;;5035406;28;20021;-59
2021/05/10 06:00:58;;;;;;;4.55;1.38;;;;;;;;;;5035401;28;20101;-59
2021/05/10 06:03:24;;;;;;;4.78;1.88;;;;;;;;;;5035742;28;20075;-59
2021/05/10 06:05:50;;;;;;;5.25;1.85;;;;;;;;;;5034985;28;20438;-59
2021/05/10 06:08:16;;;;;;;3.03;1.40;;;;;;;;;;5035203;28;20048;-57
2021/05/10 06:10:42;;;;;;;1.63;1.00;;;;;;;;;;5035291;28;20105;-57
2021/05/10 06:13:10;;;;;;;3.75;1.40;;;;;;;;;;5035010;28;20033;-57
2021/05/10 06:15:36;;;;;;;2.00;1.17;;;;;;;;;;5033983;28;20061;-57
2021/05/10 06:18:02;;;;;;;3.88;1.48;;;;;;;;;;5034950;28;20026;-57
2021/05/10 06:20:28;;;;;;;1.40;0.70;;;;;;;;;;5034911;28;20021;-57
2021/05/10 06:22:54;;;;;;;2.85;1.48;;;;;;;;;;5035145;28;20029;-58
2021/05/10 06:25:20;;;;;;;2.15;1.23;;;;;;;;;;5034902;28;20061;-58
2021/05/10 06:27:46;;;;;;;2.90;1.55;;;;;;;;;;5034898;28;20036;-58
2021/05/10 06:30:13;;;;;;;2.70;1.60;;;;;;;;;;5035135;28;20029;-58
2021/05/10 06:32:40;;;;;;;3.10;1.48;;;;;;;;;;5035338;28;20086;-58
2021/05/10 06:35:06;;;;;;;2.45;1.35;;;;;;;;;;5034768;28;20503;-58
2021/05/10 06:37:32;;;;;;;1.88;0.90;;;;;;;;;;5035159;28;20475;-59
2021/05/10 06:39:59;;;;;;;2.38;1.08;;;;;;;;;;5050576;28;20063;-58
2021/05/10 06:42:25;;;;;;;2.20;1.20;;;;;;;;;;5035217;28;20021;-58
2021/05/10 06:44:52;;;;;;;3.72;2.10;;;;;;;;;;5034947;28;20025;-58
2021/05/10 06:47:18;;;;;;;4.68;1.90;;;;;;;;;;5034842;28;20026;-58
2021/05/10 06:49:44;;;;;;;3.95;1.33;;;;;;;;;;5034387;28;20025;-58
2021/05/10 06:52:10;;;;;;;1.75;1.08;;;;;;;;;;5034597;28;20040;-58
2021/05/10 06:54:36;;;;;;;2.28;1.27;;;;;;;;;;5034197;28;20081;-58
2021/05/10 06:57:02;;;;;;;4.40;1.48;;;;;;;;;;5034231;28;20424;-58
2021/05/10 06:59:28;;;;;;;2.42;1.40;;;;;;;;;;5033852;28;20460;-58
2021/05/10 07:01:54;;;;;;;3.92;1.30;;;;;;;;;;5034686;28;20025;-58
2021/05/10 07:04:20;;;;;;;4.60;1.20;;;;;;;;;;5034218;28;20103;-58
2021/05/10 07:06:46;;;;;;;2.15;1.15;;;;;;;;;;5034603;28;20469;-58
2021/05/10 07:09:12;;;;;;;3.40;1.40;;;;;;;;;;5033934;28;20018;-58
2021/05/10 07:11:38;;;;;;;3.28;1.58;;;;;;;;;;5034803;28;20109;-58
2021/05/10 07:14:05;;;;;;;2.58;1.15;;;;;;;;;;5034014;28;20029;-58
2021/05/10 07:16:31;;;;;;;2.72;0.80;;;;;;;;;;5034216;28;20017;-58
2021/05/10 07:18:57;;;;;;;2.05;1.13;;;;;;;;;;5033392;28;20029;-58
2021/05/10 07:21:24;;;;;;;2.42;1.50;;;;;;;;;;5034507;28;20021;-58
2021/05/10 07:23:50;;;;;;;2.17;1.20;;;;;;;;;;5033748;28;20052;-58
2021/05/10 07:26:16;;;;;;;2.72;1.40;;;;;;;;;;5033729;28;20024;-58
2021/05/10 07:28:43;;;;;;;2.70;1.30;;;;;;;;;;5033544;28;20053;-58
2021/05/10 07:31:09;;;;;;;2.58;1.65;;;;;;;;;;5034416;28;20056;-58
2021/05/10 07:33:35;;;;;;;2.38;1.50;;;;;;;;;;5033494;28;20070;-58
2021/05/10 07:36:01;;;;;;;2.15;1.30;;;;;;;;;;5033080;28;20483;-58
2021/05/10 07:38:27;;;;;;;6.05;1.80;;;;;;;;;;5033806;28;20029;-58
2021/05/10 07:40:53;;;;;;;3.47;1.67;;;;;;;;;;5034087;28;20032;-58
2021/05/10 07:43:19;;;;;;;2.70;1.35;;;;;;;;;;5033358;28;20414;-58
2021/05/10 07:45:45;;;;;;;2.92;2.17;;;;;;;;;;5032940;28;20534;-58
2021/05/10 07:48:11;;;;;;;2.28;1.38;;;;;;;;;;5033175;28;20076;-58
2021/05/10 07:50:37;;;;;;;2.25;1.13;;;;;;;;;;5033444;28;20112;-58
2021/05/10 07:53:03;;;;;;;2.03;1.00;;;;;;;;;;5032677;28;20424;-58
2021/05/10 07:55:29;;;;;;;2.30;1.50;;;;;;;;;;5032819;28;20080;-58
2021/05/10 07:57:55;;;;;;;7.97;1.92;;;;;;;;;;5033145;28;20133;-58
2021/05/10 08:00:31;;;;;;;2.78;1.55;;;;;;;;;;5033081;28;20040;-58
2021/05/10 08:03:05;;;;;;;2.08;1.42;;;;;;;;;;5033327;28;20037;-58
2021/05/10 08:05:31;;;;;;;3.15;1.60;;;;;;;;;;5033449;28;20128;-58
2021/05/10 08:07:57;;;;;;;2.05;1.30;;;;;;;;;;5033465;28;20026;-58
2021/05/10 08:10:23;;;;;;;2.70;1.73;;;;;;;;;;5032777;28;20026;-58
2021/05/10 08:12:50;;;;;;;5.90;1.65;;;;;;;;;;5033372;28;20037;-58
2021/05/10 08:15:16;;;;;;;2.85;1.65;;;;;;;;;;5032757;28;20021;-58
2021/05/10 08:17:42;;;;;;;3.83;1.58;;;;;;;;;;5032548;28;20440;-59
2021/05/10 08:20:08;;;;;;;1.92;1.27;;;;;;;;;;5032812;28;20034;-58
2021/05/10 08:22:35;;;;;;;4.72;2.22;;;;;;;;;;5033228;28;20044;-58
2021/05/10 08:25:01;;;;;;;5.38;2.03;;;;;;;;;;5033362;28;20132;-59
2021/05/10 08:27:27;;;;;;;3.22;2.00;;;;;;;;;;5033252;28;20360;-58
2021/05/10 08:29:53;;;;;;;4.05;1.63;;;;;;;;;;5032915;28;20036;-59
2021/05/10 08:32:19;;;;;;;4.10;1.50;;;;;;;;;;5033128;28;20111;-58
2021/05/10 08:34:45;;;;;;;3.45;2.08;;;;;;;;;;5033242;28;20439;-59
2021/05/10 08:37:11;;;;;;;2.70;1.33;;;;;;;;;;5014806;28;20099;-59
2021/05/10 08:39:37;;;;;;;3.70;1.95;;;;;;;;;;5016904;28;20037;-58
2021/05/10 08:42:03;;;;;;;2.58;1.23;;;;;;;;;;5036879;28;20022;-58
2021/05/10 08:44:29;;;;;;;3.50;2.42;;;;;;;;;;5036865;28;20048;-58
2021/05/10 08:46:55;;;;;;;3.03;1.65;;;;;;;;;;5036788;28;20021;-58
2021/05/10 08:49:22;;;;;;;2.00;1.20;;;;;;;;;;5036711;28;20025;-58
2021/05/10 08:51:48;;;;;;;2.83;1.67;;;;;;;;;;5037440;28;20029;-58
2021/05/10 08:54:18;;;;;;;2.30;1.73;;;;;;;;;;5036430;28;20025;-58
2021/05/10 08:56:44;;;;;;;1.98;1.30;;;;;;;;;;5036734;28;20022;-58
2021/05/10 08:59:10;;;;;;;3.08;1.85;;;;;;;;;;5036674;28;20030;-58
2021/05/10 09:01:48;;;;;;;2.70;1.75;;;;;;;;;;5036604;28;20028;-59
2021/05/10 09:04:15;;;;;;;3.45;1.60;;;;;;;;;;5036803;28;20033;-59
2021/05/10 09:06:41;;;;;;;2.42;1.23;;;;;;;;;;5035977;28;20022;-59
2021/05/10 09:09:08;;;;;;;2.78;1.65;;;;;;;;;;5036123;28;20152;-59
2021/05/10 09:11:35;;;;;;;4.75;1.60;;;;;;;;;;5036136;28;20108;-63
2021/05/10 09:14:01;;;;;;;2.40;1.27;;;;;;;;;;5035852;28;20340;-59
2021/05/10 09:16:27;;;;;;;3.95;1.80;;;;;;;;;;5035913;28;20021;-59
2021/05/10 09:18:55;;;;;;;2.67;1.50;;;;;;;;;;5035971;28;20116;-59
2021/05/10 09:21:30;;;;;;;3.05;1.88;;;;;;;;;;5036035;28;20029;-59
2021/05/10 09:23:58;;;;;;;4.38;1.55;;;;;;;;;;5036458;28;20025;-59
2021/05/10 09:26:34;;;;;;;2.78;1.50;;;;;;;;;;5036286;28;20426;-59
2021/05/10 09:29:00;;;;;;;3.25;1.63;;;;;;;;;;5035632;28;20021;-59
2021/05/10 09:31:27;;;;;;;2.90;1.58;;;;;;;;;;5036236;28;20104;-59
2021/05/10 09:33:53;;;;;;;3.17;1.70;;;;;;;;;;5035941;28;20029;-59
2021/05/10 09:36:33;;;;;;;3.53;1.80;;;;;;;;;;5035760;28;20056;-59
2021/05/10 09:39:00;;;;;;;3.42;1.80;;;;;;;;;;5036266;28;20021;-59
2021/05/10 09:41:27;;;;;;;4.60;1.77;;;;;;;;;;5036222;28;20403;-59
2021/05/10 09:44:05;;;;;;;2.72;1.48;;;;;;;;;;5036107;28;20120;-59
2021/05/10 09:46:41;;;;;;;2.17;1.40;;;;;;;;;;5035744;28;20096;-59
2021/05/10 09:49:08;;;;;;;2.45;1.88;;;;;;;;;;5036065;28;20056;-58
2021/05/10 09:51:34;;;;;;;4.65;1.67;;;;;;;;;;5035957;28;20022;-59
2021/05/10 09:54:01;;;;;;;3.38;1.48;;;;;;;;;;5035435;28;20057;-58
2021/05/10 09:56:29;;;;;;;2.80;1.50;;;;;;;;;;5035425;28;20028;-59
2021/05/10 09:58:59;;;;;;;3.53;1.40;;;;;;;;;;5035624;28;20048;-59
2021/05/10 10:01:27;;;;;;;2.15;1.30;;;;;;;;;;5035937;28;20026;-59
2021/05/10 10:04:00;;;;;;;14.88;1.95;;;;;;;;;;5035496;28;20033;-59
2021/05/10 10:06:28;;;;;;;2.92;1.58;;;;;;;;;;5035281;28;20043;-58
2021/05/10 10:08:54;;;;;;;3.58;1.23;;;;;;;;;;5035588;28;20372;-59
2021/05/10 10:11:22;;;;;;;4.82;0.98;;;;;;;;;;5035683;28;20047;-59
2021/05/10 10:13:49;;;;;;;2.42;1.13;;;;;;;;;;5035087;28;20471;-59
2021/05/10 10:16:15;;;;;;;1.92;1.20;;;;;;;;;;5035622;28;20029;-59
2021/05/10 10:18:42;;;;;;;4.43;0.90;;;;;;;;;;5034843;28;20071;-59
2021/05/10 10:21:10;;;;;;;1.73;0.90;;;;;;;;;;5034786;28;20405;-59
2021/05/10 10:23:37;;;;;;;2.33;1.05;;;;;;;;;;5034761;28;20033;-58
2021/05/10 10:26:07;;;;;;;1.95;0.95;;;;;;;;;;5035011;28;20025;-59
2021/05/10 10:28:34;;;;;;;6.55;0.82;;;;;;;;;;5034729;28;20021;-59
2021/05/10 10:31:06;;;;;;;1.50;0.85;;;;;;;;;;5050206;28;20407;-59
2021/05/10 10:33:35;;;;;;;1.30;0.60;;;;;;;;;;5034181;28;20029;-59
2021/05/10 10:36:01;;;;;;;1.80;0.50;;;;;;;;;;5034056;28;20505;-59
2021/05/10 10:38:35;;;;;;;1.30;0.57;;;;;;;;;;5034909;28;20120;-59
2021/05/10 10:41:16;;;;;;;1.30;0.47;;;;;;;;;;5034559;28;20072;-59
2021/05/10 10:43:42;;;;;;;0.65;0.30;;;;;;;;;;5034959;28;20025;-59
2021/05/10 10:46:17;;;;;;;4.35;0.60;;;;;;;;;;5035243;28;20095;-59
2021/05/10 10:48:44;;;;;;;1.48;0.70;;;;;;;;;;5034922;28;20024;-59
2021/05/10 10:51:11;;;;;;;5.63;0.55;;;;;;;;;;5035162;28;20345;-59
2021/05/10 10:53:46;;;;;;;2.13;0.50;;;;;;;;;;5033958;28;20036;-59
2021/05/10 10:56:12;;;;;;;2.38;0.40;;;;;;;;;;5034302;28;20108;-59
2021/05/10 10:58:41;;;;;;;0.80;0.40;;;;;;;;;;5034295;28;20025;-59
2021/05/10 11:01:11;;;;;;;0.85;0.40;;;;;;;;;;5034413;28;20026;-59
2021/05/10 11:03:37;;;;;;;;;;;;;;;;;;5034270;28;20080;-59
2021/05/10 11:06:05;;;;;;;3.30;0.60;;;;;;;;;;5034614;28;20350;-58
2021/05/10 11:08:40;;;;;;;1.27;0.68;;;;;;;;;;5034172;28;20013;-59
2021/05/10 11:11:09;;;;;;;1.35;0.45;;;;;;;;;;5034385;28;20068;-59
2021/05/10 11:13:39;;;;;;;1.52;0.70;;;;;;;;;;5033964;28;20064;-59
2021/05/10 11:16:07;;;;;;;2.38;0.50;;;;;;;;;;5034681;28;20352;-59
2021/05/10 11:18:56;;;;;;;1.35;0.55;;;;;;;;;;5033837;28;20029;-59
2021/05/10 11:21:22;;;;;;;1.58;0.68;;;;;;;;;;5034220;28;20026;-59
2021/05/10 11:23:52;;;;;;;1.83;0.70;;;;;;;;;;5034203;28;20029;-59
2021/05/10 11:26:38;;;;;;;1.80;0.70;;;;;;;;;;5033592;28;20028;-59
2021/05/10 11:29:05;;;;;;;2.13;1.00;;;;;;;;;;5033433;28;20267;-59
2021/05/10 11:31:32;;;;;;;3.10;0.82;;;;;;;;;;5033944;28;20041;-59
2021/05/10 11:34:02;;;;;;;1.77;0.70;;;;;;;;;;5033717;28;20033;-59
2021/05/10 11:36:32;;;;;;;2.28;0.90;;;;;;;;;;5033507;28;20068;-59
2021/05/10 11:39:11;;;;;;;1.90;0.70;;;;;;;;;;5016339;28;20387;-59
2021/05/10 11:41:39;;;;;;;1.42;0.82;;;;;;;;;;5033633;28;20025;-59
2021/05/10 11:44:06;;;;;;;1.63;1.02;;;;;;;;;;5033540;28;20025;-59
2021/05/10 11:46:39;;;;;;;1.55;0.70;;;;;;;;;;5033471;28;20428;-59
2021/05/10 11:49:07;;;;;;;1.00;0.40;;;;;;;;;;5033191;28;20028;-59
2021/05/10 11:51:35;;;;;;;1.20;0.70;;;;;;;;;;5033352;28;20080;-59
2021/05/10 11:54:03;;;;;;;1.15;0.55;;;;;;;;;;5033483;28;20158;-59
2021/05/10 11:56:30;;;;;;;1.40;0.60;;;;;;;;;;5033701;28;20087;-59
2021/05/10 11:59:07;;;;;;;1.73;0.75;;;;;;;;;;5033742;28;20022;-59
2021/05/10 12:01:34;;;;;;;1.08;0.60;;;;;;;;;;5033218;28;20452;-59
2021/05/10 12:04:15;;;;;;;1.17;0.40;;;;;;;;;;5033378;28;20025;-59
2021/05/10 12:06:41;;;;;;;0.65;0.38;;;;;;;;;;5033522;28;20017;-58
2021/05/10 12:09:07;;;;;;;0.70;0.35;;;;;;;;;;5032974;28;20028;-58
2021/05/10 12:11:37;;;;;;;1.25;0.50;;;;;;;;;;5033334;28;20022;-59
2021/05/10 12:14:16;;;;;;;0.52;0.22;;;;;;;;;;5034115;28;20087;-59
2021/05/10 12:17:01;;;;;;;0.57;0.30;;;;;;;;;;5036872;28;20018;-59
2021/05/10 12:19:47;;;;;;;1.95;0.52;;;;;;;;;;5037056;28;20104;-58
2021/05/10 12:22:13;;;;;;;1.35;0.55;;;;;;;;;;5036575;28;20025;-58
2021/05/10 12:24:58;;;;;;;1.48;0.88;;;;;;;;;;5037080;28;20055;-59
2021/05/10 12:27:25;;;;;;;2.15;0.82;;;;;;;;;;5037109;28;20475;-59
2021/05/10 12:29:51;;;;;;;1.65;0.70;;;;;;;;;;5036913;28;20380;-59
2021/05/10 12:32:18;;;;;;;0.68;0.45;;;;;;;;;;5036893;28;20022;-59
2021/05/10 12:34:44;;;;;;;1.55;0.73;;;;;;;;;;5037038;28;20068;-59
2021/05/10 12:37:10;;;;;;;1.15;0.40;;;;;;;;;;5036944;28;20053;-58
2021/05/10 12:39:37;;;;;;;1.00;0.50;;;;;;;;;;5036759;28;20546;-58
2021/05/10 12:42:23;;;;;;;1.42;0.88;;;;;;;;;;5037558;28;20074;-59
2021/05/10 12:44:58;;;;;;;0.90;0.55;;;;;;;;;;5036718;28;20025;-59
2021/05/10 12:47:41;;;;;;;1.00;0.38;;;;;;;;;;5036744;28;20025;-59
2021/05/10 12:50:07;;;;;;;0.85;0.40;;;;;;;;;;5036914;28;20044;-59
2021/05/10 12:52:46;;;;;;;0.88;0.32;;;;;;;;;;5037332;28;20289;-59
2021/05/10 12:55:19;;;;;;;1.30;0.50;;;;;;;;;;5037224;28;20045;-58
2021/05/10 12:57:45;;;;;;;2.38;0.50;;;;;;;;;;5036572;28;20014;-58
2021/05/10 13:00:31;;;;;;;5.05;0.30;;;;;;;;;;5036478;28;20037;-58
2021/05/10 13:02:58;;;;;;;0.30;0.15;;;;;;;;;;5036666;28;20040;-58
2021/05/10 13:05:31;;;;;;;1.08;0.45;;;;;;;;;;5036413;28;20375;-58
2021/05/10 13:07:57;;;;;;;0.60;0.30;;;;;;;;;;5036815;28;20026;-58
2021/05/10 13:10:23;;;;;;;0.20;0.10;;;;;;;;;;5036931;28;20104;-58
2021/05/10 13:12:50;;;;;;;0.40;0.20;;;;;;;;;;5036519;28;20038;-59
2021/05/10 13:15:34;;;;;;;0.85;0.38;;;;;;;;;;5036808;28;20025;-58
2021/05/10 13:18:16;;;;;;;0.47;0.22;;;;;;;;;;5036555;28;20026;-58
2021/05/10 13:31:59;;;;;;;0.40;0.30;;;;;;;;;;5036028;28;20438;-58
2021/05/10 13:34:48;;;;;;;0.15;0.00;;;;;;;;;;5035813;28;20045;-59
2021/05/10 13:37:14;;;;;;;0.05;0.03;;;;;;;;;;5036397;28;20387;-59
2021/05/10 13:39:40;;;;;;;0.93;0.47;;;;;;;;;;5036506;28;20367;-58
2021/05/10 13:42:14;;;;;;;0.57;0.20;;;;;;;;;;5035761;28;20025;-58
2021/05/10 13:44:40;;;;;;;0.28;0.10;;;;;;;;;;5036395;28;20026;-59
2021/05/10 13:47:06;;;;;;;0.10;0.10;;;;;;;;;;5036245;28;20021;-58
2021/05/10 13:49:34;;;;;;;0.25;0.10;;;;;;;;;;5035645;28;20028;-58
2021/05/10 13:52:00;;;;;;;0.20;0.10;;;;;;;;;;5036135;28;20033;-58
2021/05/10 13:54:26;;;;;;;0.50;0.15;;;;;;;;;;5036171;28;20033;-59
2021/05/10 13:56:55;;;;;;;0.10;0.00;;;;;;;;;;5035951;28;20160;-59
2021/05/10 13:59:21;;;;;;;0.20;0.08;;;;;;;;;;5035875;28;20029;-59
2021/05/10 14:01:48;;;;;;;0.28;0.10;;;;;;;;;;5036027;28;20370;-59
2021/05/10 14:04:14;;;;;;;0.20;0.10;;;;;;;;;;5035364;28;20153;-58
2021/05/10 14:06:40;;;;;;;0.10;0.00;;;;;;;;;;5035374;28;20025;-58
2021/05/10 14:09:06;;;;;;;0.32;0.10;;;;;;;;;;5035615;28;20045;-59
2021/05/10 14:11:32;;;;;;;0.00;0.00;;;;;;;;;;5035760;28;20104;-58
2021/05/10 14:13:58;;;;;;;0.13;0.03;;;;;;;;;;5035315;28;20117;-58
2021/05/10 14:16:24;;;;;;;0.63;0.30;;;;;;;;;;5035178;28;20052;-58
2021/05/10 14:19:05;;;;;;;0.20;0.10;;;;;;;;;;5035068;28;20467;-58
2021/05/10 14:24:16;;;;;;;0.10;0.00;;;;;;;;;;5034881;28;20370;-58
2021/05/10 14:26:42;;;;;;;0.50;0.20;;;;;;;;;;5034925;28;20026;-58
2021/05/10 14:29:08;;;;;;;0.45;0.10;;;;;;;;;;5035580;28;20030;-59
2021/05/10 14:31:37;;;;;;;0.43;0.10;;;;;;;;;;5035635;28;20052;-59
2021/05/10 14:34:04;;;;;;;0.43;0.20;;;;;;;;;;5035408;28;20059;-57
2021/05/10 14:36:30;;;;;;;1.02;0.20;;;;;;;;;;5033565;28;20471;-59
2021/05/10 14:38:56;;;;;;;0.70;0.40;;;;;;;;;;5034746;28;20030;-59
2021/05/10 14:41:22;;;;;;;0.22;0.10;;;;;;;;;;5034565;28;20025;-58
2021/05/10 14:43:48;;;;;;;1.10;0.60;;;;;;;;;;5034845;28;20033;-59
2021/05/10 14:46:14;;;;;;;1.33;0.40;;;;;;;;;;5016776;28;20029;-59
2021/05/10 14:48:41;;;;;;;0.40;0.20;;;;;;;;;;5034832;28;20029;-59
2021/05/10 14:51:07;;;;;;;1.45;0.55;;;;;;;;;;5035025;28;20057;-59
2021/05/10 14:53:33;;;;;;;0.25;0.10;;;;;;;;;;5034636;28;20142;-59
2021/05/10 14:55:59;;;;;;;1.88;0.22;;;;;;;;;;5034248;28;20025;-59
2021/05/10 14:58:25;;;;;;;0.40;0.13;;;;;;;;;;5034762;28;20399;-59
2021/05/10 15:00:52;;;;;;;0.20;0.10;;;;;;;;;;5034346;28;20030;-59
2021/05/10 15:03:18;;;;;;;0.68;0.30;;;;;;;;;;5034078;28;20459;-59